createdAt,value
2022-09-28T00:01:24.145Z,75.30
2022-09-28T00:03:52.492Z,75.30
2022-09-28T00:06:20.926Z,75.20
2022-09-28T00:08:47.731Z,75.30
2022-09-28T00:11:14.729Z,75.20
2022-09-28T00:13:42.205Z,75.30
2022-09-28T00:16:19.042Z,75.30
2022-09-28T00:18:46.022Z,75.30
2022-09-28T00:21:20.912Z,75.30
2022-09-28T00:23:47.698Z,75.40
2022-09-28T00:26:14.413Z,75.40
2022-09-28T00:28:41.066Z,75.40
2022-09-28T00:31:07.880Z,75.40
2022-09-28T00:33:34.645Z,75.40
2022-09-28T00:36:01.570Z,75.40
2022-09-28T00:38:29.144Z,75.40
2022-09-28T00:40:55.953Z,75.50
2022-09-28T00:43:23.793Z,75.50
2022-09-28T00:46:03.768Z,75.50
2022-09-28T00:48:33.695Z,75.60
2022-09-28T00:51:01.951Z,75.60
2022-09-28T00:53:31.142Z,75.60
2022-09-28T00:56:00.151Z,75.70
2022-09-28T00:58:28.370Z,75.70
2022-09-28T01:00:58.275Z,75.70
2022-09-28T01:03:25.916Z,75.70
2022-09-28T01:05:52.974Z,75.70
2022-09-28T01:08:20.108Z,75.70
2022-09-28T01:10:47.093Z,75.70
2022-09-28T01:13:13.846Z,75.80
2022-09-28T01:15:46.333Z,75.70
2022-09-28T01:18:21.945Z,75.70
2022-09-28T01:21:01.316Z,75.70
2022-09-28T01:23:43.981Z,75.70
2022-09-28T01:26:28.848Z,75.70
2022-09-28T01:29:16.794Z,75.80
2022-09-28T01:31:46.252Z,75.70
2022-09-28T01:34:19.524Z,75.70
2022-09-28T01:36:48.337Z,75.70
2022-09-28T01:39:16.564Z,75.70
2022-09-28T01:41:44.771Z,75.70
2022-09-28T01:44:14.066Z,76.60
2022-09-28T01:46:42.250Z,75.80
2022-09-28T01:49:19.202Z,75.80
2022-09-28T01:51:51.010Z,75.90
2022-09-28T01:54:21.090Z,75.90
2022-09-28T01:57:18.784Z,75.90
2022-09-28T01:59:59.144Z,75.90
2022-09-28T02:02:27.336Z,75.90
2022-09-28T02:04:58.669Z,75.90
2022-09-28T02:07:53.584Z,75.90
2022-09-28T02:10:25.921Z,76.10
2022-09-28T02:13:08.919Z,76.70
2022-09-28T02:15:37.489Z,75.90
2022-09-28T02:18:04.310Z,75.70
2022-09-28T02:20:31.431Z,75.70
2022-09-28T02:22:58.183Z,75.90
2022-09-28T02:25:39.570Z,75.90
2022-09-28T02:28:07.237Z,76.10
2022-09-28T02:30:35.956Z,76.10
2022-09-28T02:33:21.184Z,76.00
2022-09-28T02:35:47.838Z,76.10
2022-09-28T02:38:14.795Z,76.00
2022-09-28T02:40:42.337Z,76.10
2022-09-28T02:43:29.643Z,76.20
2022-09-28T02:46:15.142Z,76.20
2022-09-28T02:49:21.718Z,76.20
2022-09-28T02:52:01.511Z,76.20
2022-09-28T02:54:43.429Z,76.10
2022-09-28T02:57:31.521Z,76.20
2022-09-28T03:00:07.838Z,76.20
2022-09-28T03:02:36.834Z,76.20
2022-09-28T03:05:11.931Z,76.20
2022-09-28T03:08:01.656Z,76.20
2022-09-28T03:10:34.269Z,76.40
2022-09-28T03:13:00.972Z,76.30
2022-09-28T03:15:29.236Z,76.20
2022-09-28T03:17:56.871Z,76.20
2022-09-28T03:20:23.701Z,76.30
2022-09-28T03:23:06.449Z,76.30
2022-09-28T03:25:37.023Z,76.40
2022-09-28T03:28:03.728Z,76.30
2022-09-28T03:30:30.378Z,76.30
2022-09-28T03:32:58.359Z,76.40
2022-09-28T03:35:25.122Z,76.40
2022-09-28T03:37:55.603Z,76.40
2022-09-28T03:40:22.338Z,76.40
2022-09-28T03:42:49.031Z,76.50
2022-09-28T03:45:15.741Z,76.40
2022-09-28T03:47:46.405Z,76.50
2022-09-28T03:50:13.302Z,76.60
2022-09-28T03:52:40.054Z,76.50
2022-09-28T03:55:07.030Z,76.50
2022-09-28T03:57:33.694Z,76.50
2022-09-28T04:00:00.520Z,76.50
2022-09-28T04:02:27.235Z,76.50
2022-09-28T04:04:53.968Z,76.60
2022-09-28T04:07:20.691Z,76.60
2022-09-28T04:09:47.351Z,76.60
2022-09-28T04:12:14.003Z,76.60
2022-09-28T04:14:40.684Z,76.70
2022-09-28T04:17:07.510Z,76.60
2022-09-28T04:19:34.160Z,76.60
2022-09-28T04:22:01.888Z,76.70
2022-09-28T04:24:28.629Z,76.70
2022-09-28T04:26:55.305Z,76.70
2022-09-28T04:29:22.129Z,76.70
2022-09-28T04:31:50.131Z,76.70
2022-09-28T04:34:18.563Z,76.80
2022-09-28T04:36:45.462Z,76.90
2022-09-28T04:39:16.143Z,76.80
2022-09-28T04:41:42.909Z,76.80
2022-09-28T04:44:09.773Z,76.80
2022-09-28T04:46:36.679Z,76.90
2022-09-28T04:49:03.492Z,77.00
2022-09-28T04:51:33.227Z,76.90
2022-09-28T04:53:59.886Z,77.00
2022-09-28T04:56:26.583Z,77.00
2022-09-28T04:58:53.363Z,77.00
2022-09-28T05:01:20.571Z,77.00
2022-09-28T05:03:47.300Z,77.00
2022-09-28T05:06:14.509Z,77.00
2022-09-28T05:08:41.688Z,77.00
2022-09-28T05:11:10.705Z,77.10
2022-09-28T05:13:42.381Z,77.10
2022-09-28T05:16:09.462Z,77.20
2022-09-28T05:18:39.412Z,77.20
2022-09-28T05:21:13.006Z,77.10
2022-09-28T05:23:40.537Z,77.10
2022-09-28T05:26:08.154Z,77.10
2022-09-28T05:28:34.842Z,77.10
2022-09-28T05:31:02.822Z,77.10
2022-09-28T05:33:29.631Z,78.00
2022-09-28T05:36:01.361Z,77.10
2022-09-28T05:38:28.877Z,77.20
2022-09-28T05:40:55.693Z,77.20
2022-09-28T05:43:22.515Z,77.30
2022-09-28T05:45:54.288Z,77.20
2022-09-28T05:48:22.588Z,77.30
2022-09-28T05:50:52.727Z,77.30
2022-09-28T05:53:19.932Z,77.30
2022-09-28T05:55:46.667Z,77.30
2022-09-28T05:58:13.557Z,77.30
2022-09-28T06:00:40.378Z,77.30
2022-09-28T06:03:09.484Z,77.20
2022-09-28T06:05:36.570Z,77.30
2022-09-28T06:08:03.441Z,77.30
2022-09-28T06:10:30.194Z,77.30
2022-09-28T06:12:57.212Z,77.40
2022-09-28T06:15:24.762Z,77.30
2022-09-28T06:18:00.784Z,77.50
2022-09-28T06:20:28.379Z,77.50
2022-09-28T06:22:55.190Z,77.50
2022-09-28T06:25:24.039Z,77.50
2022-09-28T06:28:00.164Z,77.50
2022-09-28T06:30:27.567Z,77.50
2022-09-28T06:32:55.335Z,77.50
2022-09-28T06:35:22.866Z,77.50
2022-09-28T06:37:49.604Z,77.50
2022-09-28T06:40:16.381Z,77.50
2022-09-28T06:42:43.111Z,77.50
2022-09-28T06:45:10.192Z,77.50
2022-09-28T06:47:37.578Z,77.50
2022-09-28T06:50:06.099Z,77.50
2022-09-28T06:52:35.167Z,77.60
2022-09-28T06:55:02.022Z,77.50
2022-09-28T06:57:28.804Z,77.60
2022-09-28T06:59:55.502Z,77.50
2022-09-28T07:02:22.267Z,77.50
2022-09-28T07:04:49.082Z,77.60
2022-09-28T07:07:17.870Z,77.60
2022-09-28T07:09:49.369Z,77.60
2022-09-28T07:12:17.290Z,77.60
2022-09-28T07:14:48.087Z,77.60
2022-09-28T07:17:15.785Z,77.60
2022-09-28T07:19:42.582Z,77.40
2022-09-28T07:22:13.040Z,77.50
2022-09-28T07:24:41.769Z,77.40
2022-09-28T07:27:08.497Z,77.30
2022-09-28T07:29:35.447Z,77.30
2022-09-28T07:32:02.191Z,77.30
2022-09-28T07:34:28.928Z,77.40
2022-09-28T07:36:55.632Z,77.20
2022-09-28T07:39:24.796Z,77.30
2022-09-28T07:41:52.694Z,77.30
2022-09-28T07:44:21.072Z,77.20
2022-09-28T07:46:47.774Z,77.10
2022-09-28T07:49:14.522Z,77.10
2022-09-28T07:51:41.273Z,77.20
2022-09-28T07:54:07.927Z,77.20
2022-09-28T07:56:34.641Z,77.20
2022-09-28T07:59:01.318Z,77.10
2022-09-28T08:01:28.162Z,77.10
2022-09-28T08:03:54.873Z,77.10
2022-09-28T08:06:21.539Z,77.10
2022-09-28T08:08:48.210Z,77.10
2022-09-28T08:11:16.171Z,76.90
2022-09-28T08:13:43.030Z,77.00
2022-09-28T08:16:09.733Z,77.00
2022-09-28T08:18:36.498Z,77.00
2022-09-28T08:21:03.967Z,77.80
2022-09-28T08:23:30.725Z,76.90
2022-09-28T08:25:57.538Z,76.80
2022-09-28T08:28:24.618Z,76.90
2022-09-28T08:30:51.627Z,76.70
2022-09-28T08:33:18.760Z,76.60
2022-09-28T08:35:45.502Z,76.60
2022-09-28T08:38:12.171Z,76.40
2022-09-28T08:40:53.699Z,76.40
2022-09-28T08:43:49.802Z,76.20
2022-09-28T08:46:17.412Z,76.00
2022-09-28T08:49:13.353Z,76.00
2022-09-28T08:52:01.273Z,75.70
2022-09-28T08:54:36.808Z,75.60
2022-09-28T08:57:37.534Z,75.40
2022-09-28T09:00:09.645Z,74.80
2022-09-28T09:02:38.494Z,74.80
2022-09-28T09:05:11.217Z,74.40
2022-09-28T09:07:59.875Z,74.00
2022-09-28T09:10:47.692Z,73.10
2022-09-28T09:13:32.706Z,72.80
2022-09-28T09:16:08.264Z,72.60
2022-09-28T09:18:56.859Z,72.40
2022-09-28T09:21:37.325Z,72.20
2022-09-28T09:24:29.982Z,71.90
2022-09-28T09:27:08.731Z,71.10
2022-09-28T09:30:10.726Z,70.80
2022-09-28T09:32:37.441Z,70.40
2022-09-28T09:35:30.933Z,70.40
2022-09-28T09:38:19.488Z,70.10
2022-09-28T09:41:15.244Z,70.00
2022-09-28T09:44:15.108Z,69.50
2022-09-28T09:46:51.740Z,69.40
2022-09-28T09:49:18.468Z,69.00
2022-09-28T09:51:51.267Z,68.60
2022-09-28T09:54:25.188Z,68.40
2022-09-28T09:56:59.886Z,68.30
2022-09-28T09:59:29.851Z,68.20
2022-09-28T10:01:56.510Z,67.70
2022-09-28T10:04:24.222Z,67.30
2022-09-28T10:06:53.084Z,66.90
2022-09-28T10:09:43.907Z,66.10
2022-09-28T10:12:10.690Z,65.50
2022-09-28T10:14:37.369Z,65.30
2022-09-28T10:17:04.204Z,64.90
2022-09-28T10:19:32.132Z,64.70
2022-09-28T10:21:59.921Z,64.70
2022-09-28T10:24:32.193Z,64.30
2022-09-28T10:27:13.390Z,63.90
2022-09-28T10:29:54.133Z,63.70
2022-09-28T10:32:25.119Z,63.50
2022-09-28T10:34:52.868Z,60.90
2022-09-28T10:37:19.623Z,60.10
2022-09-28T10:39:53.570Z,59.30
2022-09-28T10:42:31.389Z,57.10
2022-09-28T10:45:02.602Z,55.40
2022-09-28T10:47:29.958Z,53.20
2022-09-28T10:49:56.615Z,51.80
2022-09-28T10:52:35.027Z,50.20
2022-09-28T10:55:02.145Z,48.90
2022-09-28T10:57:36.064Z,47.90
2022-09-28T11:00:04.543Z,46.20
2022-09-28T11:02:40.063Z,45.80
2022-09-28T11:05:07.309Z,45.20
2022-09-28T11:07:34.759Z,46.00
2022-09-28T11:10:01.501Z,47.70
2022-09-28T11:12:37.998Z,49.40
2022-09-28T11:15:06.234Z,51.10
2022-09-28T11:17:39.345Z,52.70
2022-09-28T11:20:27.332Z,53.50
2022-09-28T11:22:59.213Z,54.20
2022-09-28T11:25:26.882Z,55.00
2022-09-28T11:27:53.562Z,55.30
2022-09-28T11:30:39.828Z,55.60
2022-09-28T11:33:14.848Z,55.70
2022-09-28T11:36:16.924Z,55.80
2022-09-28T11:39:11.260Z,55.60
2022-09-28T11:41:59.236Z,55.10
2022-09-28T11:44:32.574Z,55.00
2022-09-28T11:47:20.869Z,55.20
2022-09-28T11:49:52.246Z,55.20
2022-09-28T11:52:26.443Z,55.50
2022-09-28T11:54:59.396Z,55.40
2022-09-28T11:57:29.743Z,55.40
2022-09-28T12:00:05.171Z,55.50
2022-09-28T12:03:08.748Z,55.30
2022-09-28T12:05:39.148Z,55.30
2022-09-28T12:08:12.139Z,55.60
2022-09-28T12:10:53.306Z,55.50
2022-09-28T12:13:22.436Z,55.40
2022-09-28T12:16:20.050Z,55.50
2022-09-28T12:19:01.779Z,55.40
2022-09-28T12:21:39.945Z,55.10
2022-09-28T12:24:34.651Z,55.00
2022-09-28T12:27:10.668Z,54.80
2022-09-28T12:29:43.648Z,54.90
2022-09-28T12:32:16.430Z,54.90
2022-09-28T12:34:43.227Z,55.00
2022-09-28T12:37:12.987Z,55.10
2022-09-28T12:39:57.690Z,55.30
2022-09-28T12:42:33.943Z,55.50
2022-09-28T12:45:26.616Z,55.40
2022-09-28T12:48:05.504Z,54.90
2022-09-28T12:50:55.997Z,54.60
2022-09-28T12:53:45.060Z,54.40
2022-09-28T12:56:20.895Z,54.00
2022-09-28T12:58:54.452Z,53.90
2022-09-28T13:01:24.247Z,53.90
2022-09-28T13:03:58.093Z,54.00
2022-09-28T13:06:31.961Z,54.00
2022-09-28T13:09:14.842Z,53.20
2022-09-28T13:12:06.230Z,52.70
2022-09-28T13:15:11.219Z,53.00
2022-09-28T13:17:43.004Z,52.60
2022-09-28T13:20:31.539Z,51.50
2022-09-28T13:23:17.073Z,50.00
2022-09-28T13:25:50.015Z,47.80
2022-09-28T13:28:17.183Z,47.10
2022-09-28T13:30:44.037Z,45.90
2022-09-28T13:33:17.555Z,44.40
2022-09-28T13:35:44.216Z,43.60
2022-09-28T13:38:29.666Z,42.70
2022-09-28T13:41:06.163Z,42.40
2022-09-28T13:43:54.762Z,43.50
2022-09-28T13:46:40.344Z,44.60
2022-09-28T13:49:16.327Z,45.60
2022-09-28T13:52:04.785Z,46.70
2022-09-28T13:54:50.021Z,47.30
2022-09-28T13:57:35.326Z,47.80
2022-09-28T14:00:12.983Z,48.50
2022-09-28T14:02:47.178Z,49.00
2022-09-28T14:05:22.968Z,49.40
2022-09-28T14:08:08.822Z,49.70
2022-09-28T14:10:55.037Z,50.10
2022-09-28T14:13:59.843Z,50.30
2022-09-28T14:16:28.632Z,50.60
2022-09-28T14:19:18.484Z,50.90
2022-09-28T14:22:15.341Z,51.00
2022-09-28T14:25:00.203Z,51.00
2022-09-28T14:27:38.859Z,51.00
2022-09-28T14:30:12.179Z,51.00
2022-09-28T14:32:48.044Z,51.00
2022-09-28T14:35:19.705Z,51.20
2022-09-28T14:37:48.895Z,51.10
2022-09-28T14:40:50.077Z,51.20
2022-09-28T14:43:36.059Z,51.10
2022-09-28T14:46:08.935Z,50.90
2022-09-28T14:48:48.349Z,50.70
2022-09-28T14:51:27.471Z,50.00
2022-09-28T14:53:55.079Z,49.70
2022-09-28T14:56:21.978Z,49.80
2022-09-28T14:58:53.682Z,49.70
2022-09-28T15:01:21.186Z,49.60
2022-09-28T15:03:49.704Z,49.70
2022-09-28T15:06:16.535Z,49.80
2022-09-28T15:08:43.205Z,49.80
2022-09-28T15:11:18.189Z,50.00
2022-09-28T15:13:44.848Z,50.00
2022-09-28T15:16:13.442Z,50.10
2022-09-28T15:19:09.319Z,50.10
2022-09-28T15:21:37.837Z,50.10
2022-09-28T15:24:32.418Z,50.10
2022-09-28T15:27:14.761Z,49.90
2022-09-28T15:29:41.625Z,50.00
2022-09-28T15:32:24.106Z,50.10
2022-09-28T15:34:50.803Z,50.30
2022-09-28T15:37:23.549Z,50.70
2022-09-28T15:39:51.098Z,50.50
2022-09-28T15:42:19.057Z,50.40
2022-09-28T15:45:14.441Z,50.40
2022-09-28T15:47:41.691Z,50.30
2022-09-28T15:50:30.023Z,50.70
2022-09-28T15:53:03.336Z,51.00
2022-09-28T15:55:36.623Z,51.30
2022-09-28T15:58:22.485Z,51.50
2022-09-28T16:00:50.673Z,51.80
2022-09-28T16:03:17.342Z,52.00
2022-09-28T16:05:44.869Z,52.30
2022-09-28T16:08:17.647Z,52.50
2022-09-28T16:10:53.606Z,52.60
2022-09-28T16:13:20.421Z,52.90
2022-09-28T16:15:47.239Z,53.00
2022-09-28T16:18:13.915Z,53.00
2022-09-28T16:20:40.903Z,53.10
2022-09-28T16:23:16.697Z,53.30
2022-09-28T16:26:11.279Z,53.30
2022-09-28T16:28:41.031Z,53.40
2022-09-28T16:31:13.589Z,53.50
2022-09-28T16:33:44.213Z,53.60
2022-09-28T16:36:12.345Z,53.60
2022-09-28T16:38:39.023Z,53.80
2022-09-28T16:41:05.865Z,53.90
2022-09-28T16:43:34.145Z,53.90
2022-09-28T16:46:06.308Z,54.10
2022-09-28T16:48:34.633Z,54.20
2022-09-28T16:51:01.418Z,54.30
2022-09-28T16:53:28.092Z,54.40
2022-09-28T16:55:55.030Z,54.50
2022-09-28T16:58:21.762Z,54.70
2022-09-28T17:00:48.453Z,54.80
2022-09-28T17:03:16.460Z,55.00
2022-09-28T17:05:43.287Z,55.10
2022-09-28T17:08:12.792Z,55.20
2022-09-28T17:11:13.559Z,55.30
2022-09-28T17:13:36.027Z,55.40
2022-09-28T17:16:04.487Z,55.40
2022-09-28T17:18:31.254Z,55.60
2022-09-28T17:20:58.564Z,55.60
2022-09-28T17:23:25.337Z,55.90
2022-09-28T17:25:52.092Z,56.10
2022-09-28T17:28:27.305Z,56.30
2022-09-28T17:30:54.250Z,56.50
2022-09-28T17:33:21.088Z,56.60
2022-09-28T17:35:47.924Z,56.70
2022-09-28T17:38:15.502Z,57.00
2022-09-28T17:40:43.072Z,57.20
2022-09-28T17:43:09.829Z,57.30
2022-09-28T17:45:37.286Z,57.40
2022-09-28T17:48:04.257Z,57.50
2022-09-28T17:50:32.723Z,57.70
2022-09-28T17:52:59.544Z,57.80
2022-09-28T17:55:28.100Z,58.00
2022-09-28T17:57:55.524Z,58.10
2022-09-28T18:00:22.471Z,58.20
2022-09-28T18:02:50.656Z,58.30
2022-09-28T18:05:17.683Z,58.50
2022-09-28T18:07:47.616Z,58.60
2022-09-28T18:10:20.708Z,58.80
2022-09-28T18:12:47.673Z,58.90
2022-09-28T18:15:14.572Z,58.80
2022-09-28T18:17:41.401Z,58.90
2022-09-28T18:20:11.357Z,59.00
2022-09-28T18:22:38.131Z,59.20
2022-09-28T18:25:05.898Z,59.40
2022-09-28T18:27:32.648Z,59.60
2022-09-28T18:29:59.341Z,59.70
2022-09-28T18:32:26.017Z,60.00
2022-09-28T18:34:52.717Z,60.10
2022-09-28T18:37:19.428Z,60.30
2022-09-28T18:39:46.190Z,60.30
2022-09-28T18:42:12.988Z,60.60
2022-09-28T18:44:39.688Z,60.70
2022-09-28T18:47:06.344Z,60.80
2022-09-28T18:49:33.007Z,60.90
2022-09-28T18:51:59.676Z,61.00
2022-09-28T18:54:26.358Z,61.10
2022-09-28T18:56:56.156Z,61.30
2022-09-28T18:59:23.108Z,61.40
2022-09-28T19:01:50.050Z,61.50
2022-09-28T19:04:16.915Z,61.60
2022-09-28T19:06:43.603Z,61.70
2022-09-28T19:09:10.802Z,61.90
2022-09-28T19:11:37.777Z,62.00
2022-09-28T19:14:05.908Z,62.20
2022-09-28T19:16:32.628Z,62.20
2022-09-28T19:18:59.471Z,62.30
2022-09-28T19:21:26.187Z,62.40
2022-09-28T19:23:52.872Z,62.30
2022-09-28T19:26:22.534Z,62.40
2022-09-28T19:28:49.341Z,62.50
2022-09-28T19:31:16.101Z,62.70
2022-09-28T19:33:42.875Z,62.80
2022-09-28T19:36:17.368Z,63.00
2022-09-28T19:38:44.303Z,63.10
2022-09-28T19:41:15.483Z,63.10
2022-09-28T19:43:42.143Z,63.30
2022-09-28T19:46:08.930Z,63.40
2022-09-28T19:48:35.753Z,63.50
2022-09-28T19:51:04.477Z,63.60
2022-09-28T19:53:32.919Z,63.60
2022-09-28T19:56:00.011Z,63.60
2022-09-28T19:58:29.596Z,63.50
2022-09-28T20:00:56.273Z,63.60
2022-09-28T20:03:22.982Z,63.80
2022-09-28T20:05:49.651Z,63.70
2022-09-28T20:08:16.311Z,63.80
2022-09-28T20:10:52.574Z,63.80
2022-09-28T20:13:19.384Z,64.00
2022-09-28T20:15:46.106Z,64.00
2022-09-28T20:18:12.970Z,64.10
2022-09-28T20:20:39.987Z,64.10
2022-09-28T20:23:06.665Z,64.00
2022-09-28T20:25:33.314Z,64.10
2022-09-28T20:28:00.031Z,64.20
2022-09-28T20:30:26.735Z,64.30
2022-09-28T20:32:53.440Z,64.30
2022-09-28T20:35:30.608Z,64.40
2022-09-28T20:37:59.579Z,64.40
2022-09-28T20:40:26.265Z,64.50
2022-09-28T20:42:52.987Z,64.70
2022-09-28T20:45:19.632Z,64.70
2022-09-28T20:47:46.294Z,64.70
2022-09-28T20:50:12.955Z,64.90
2022-09-28T20:52:39.701Z,64.90
2022-09-28T20:55:06.641Z,65.00
2022-09-28T20:57:33.409Z,65.10
2022-09-28T21:00:00.214Z,65.10
2022-09-28T21:02:26.958Z,65.10
2022-09-28T21:04:53.668Z,65.20
2022-09-28T21:07:20.341Z,65.30
2022-09-28T21:09:47.001Z,65.20
2022-09-28T21:12:13.680Z,65.20
2022-09-28T21:14:40.320Z,65.40
2022-09-28T21:17:06.975Z,65.40
2022-09-28T21:19:33.691Z,65.50
2022-09-28T21:22:00.399Z,65.60
2022-09-28T21:24:27.055Z,65.70
2022-09-28T21:26:53.785Z,65.60
2022-09-28T21:29:20.494Z,65.70
2022-09-28T21:31:47.213Z,65.70
2022-09-28T21:34:17.851Z,65.80
2022-09-28T21:36:44.683Z,65.80
2022-09-28T21:39:11.347Z,65.90
2022-09-28T21:41:38.092Z,65.90
2022-09-28T21:44:04.751Z,66.70
2022-09-28T21:46:31.485Z,66.00
2022-09-28T21:48:58.172Z,66.10
2022-09-28T21:51:24.937Z,66.20
2022-09-28T21:53:51.644Z,66.20
2022-09-28T21:56:18.370Z,66.20
2022-09-28T21:58:45.058Z,66.30
2022-09-28T22:01:16.688Z,66.30
2022-09-28T22:03:44.237Z,66.30
2022-09-28T22:06:11.150Z,66.30
2022-09-28T22:08:37.879Z,66.40
2022-09-28T22:11:06.477Z,66.30
2022-09-28T22:13:39.930Z,66.30
2022-09-28T22:16:06.798Z,66.30
2022-09-28T22:18:33.479Z,66.40
2022-09-28T22:21:00.177Z,66.40
2022-09-28T22:23:27.785Z,66.50
2022-09-28T22:26:01.574Z,66.60
2022-09-28T22:28:28.540Z,66.60
2022-09-28T22:30:55.951Z,66.60
2022-09-28T22:33:22.811Z,66.80
2022-09-28T22:35:49.541Z,66.70
2022-09-28T22:38:16.476Z,66.80
2022-09-28T22:40:54.160Z,66.80
2022-09-28T22:43:21.412Z,67.00
2022-09-28T22:45:48.076Z,66.80
2022-09-28T22:48:14.790Z,67.00
2022-09-28T22:50:49.417Z,67.00
2022-09-28T22:53:16.191Z,67.10
2022-09-28T22:55:42.848Z,67.00
2022-09-28T22:58:09.634Z,67.00
2022-09-28T23:00:36.324Z,66.80
2022-09-28T23:03:03.138Z,67.00
2022-09-28T23:05:29.908Z,67.00
2022-09-28T23:07:56.592Z,67.10
2022-09-28T23:10:23.266Z,67.20
2022-09-28T23:12:49.976Z,67.20
2022-09-28T23:15:16.673Z,67.30
2022-09-28T23:17:43.329Z,67.30
2022-09-28T23:20:09.999Z,67.30
2022-09-28T23:22:36.650Z,67.50
2022-09-28T23:25:03.398Z,67.50
2022-09-28T23:27:30.073Z,67.50
2022-09-28T23:29:56.757Z,67.50
2022-09-28T23:32:23.481Z,67.50
2022-09-28T23:34:50.135Z,67.50
2022-09-28T23:37:16.853Z,67.60
2022-09-28T23:39:43.549Z,67.60
2022-09-28T23:42:10.328Z,67.60
2022-09-28T23:44:37.054Z,67.60
2022-09-28T23:47:05.066Z,67.80
2022-09-28T23:49:31.801Z,67.70
2022-09-28T23:51:58.539Z,67.70
2022-09-28T23:54:25.225Z,67.70
2022-09-28T23:56:51.933Z,67.80
2022-09-28T23:59:18.628Z,67.80
